Time;durP1;ratioP1;P1;durP2;ratioP2;P2;SDS_P1;SDS_P2;PMS_P1;PMS_P2;Temp;Humidity;BMP_temperature;BMP_pressure;BME280_temperature;BME280_humidity;BME280_pressure;Samples;Min_cycle;Max_cycle;Signal;HPM_P1;HPM_P2
2021/06/16 00:01:55;;;;;;;1.33;1.10;;;22.00;99.90;;;;;;5105509;28;20210;-82
2021/06/16 00:04:21;;;;;;;0.77;0.77;;;21.90;99.90;;;;;;5098824;28;20291;-82
2021/06/16 00:06:48;;;;;;;0.77;0.77;;;21.80;99.90;;;;;;5107965;28;20188;-82
2021/06/16 00:09:14;;;;;;;1.17;1.03;;;21.70;99.90;;;;;;5095954;28;20200;-82
2021/06/16 00:11:39;;;;;;;0.70;0.70;;;21.60;99.90;;;;;;5109508;27;20677;-82
2021/06/16 00:14:05;;;;;;;1.53;1.20;;;21.50;99.90;;;;;;5102526;28;20181;-82
2021/06/16 00:16:31;;;;;;;1.47;1.07;;;21.50;99.90;;;;;;5096696;28;20181;-82
2021/06/16 00:18:57;;;;;;;1.07;0.90;;;21.50;99.90;;;;;;5094712;28;20279;-82
2021/06/16 00:21:22;;;;;;;0.70;0.70;;;21.40;99.90;;;;;;5106722;28;20647;-81
2021/06/16 00:23:48;;;;;;;1.30;1.20;;;21.40;99.90;;;;;;5104972;28;20195;-82
2021/06/16 00:26:15;;;;;;;1.00;0.90;;;21.40;99.90;;;;;;5112020;28;20203;-82
2021/06/16 00:28:41;;;;;;;0.60;0.60;;;21.40;99.90;;;;;;5104338;28;20284;-82
2021/06/16 00:31:06;;;;;;;0.83;0.73;;;21.30;99.90;;;;;;5100396;28;20274;-82
2021/06/16 00:33:32;;;;;;;0.50;0.50;;;21.40;99.90;;;;;;5103774;28;20240;-82
2021/06/16 00:35:59;;;;;;;0.73;0.73;;;21.50;99.90;;;;;;5096758;28;20267;-82
2021/06/16 00:38:24;;;;;;;0.90;0.90;;;21.50;99.90;;;;;;5108702;28;20200;-82
2021/06/16 00:40:51;;;;;;;0.80;0.80;;;21.40;99.90;;;;;;5094058;28;20196;-82
2021/06/16 00:43:16;;;;;;;1.00;0.90;;;21.30;99.90;;;;;;5100338;28;20636;-82
2021/06/16 00:45:42;;;;;;;0.80;0.80;;;21.20;99.90;;;;;;5109171;28;20215;-82
2021/06/16 00:48:08;;;;;;;0.50;0.50;;;21.20;99.90;;;;;;5099825;28;20563;-81
2021/06/16 00:50:36;;;;;;;0.87;0.87;;;21.20;99.90;;;;;;5099045;28;20181;-82
2021/06/16 00:53:03;;;;;;;0.70;0.70;;;21.20;99.90;;;;;;5111748;28;20546;-82
2021/06/16 00:55:28;;;;;;;0.83;0.83;;;21.20;99.90;;;;;;5114810;28;20186;-82
2021/06/16 00:57:56;;;;;;;1.10;1.00;;;21.10;99.90;;;;;;5096621;28;20278;-82
2021/06/16 01:00:30;;;;;;;0.90;0.90;;;21.00;99.90;;;;;;5103585;28;20196;-82
2021/06/16 01:03:03;;;;;;;0.70;0.67;;;20.90;99.90;;;;;;5093608;28;20238;-82
2021/06/16 01:05:36;;;;;;;0.60;0.50;;;20.90;99.90;;;;;;5106982;28;20216;-82
2021/06/16 01:08:04;;;;;;;1.20;1.20;;;20.90;99.90;;;;;;5094716;28;20270;-81
2021/06/16 01:10:34;;;;;;;0.90;0.90;;;20.80;99.90;;;;;;5095773;28;20291;-81
2021/06/16 01:13:15;;;;;;;1.23;0.60;;;20.90;99.90;;;;;;5096314;27;20641;-81
2021/06/16 01:15:49;;;;;;;0.80;0.80;;;20.80;99.90;;;;;;5095197;28;20195;-82
2021/06/16 01:18:19;;;;;;;2.00;1.57;;;20.80;99.90;;;;;;5103623;28;20648;-81
2021/06/16 01:20:49;;;;;;;0.87;0.87;;;20.70;99.90;;;;;;5108274;28;20179;-82
2021/06/16 01:23:33;;;;;;;1.27;1.07;;;20.60;99.90;;;;;;5104334;28;20196;-82
2021/06/16 01:26:23;;;;;;;0.87;0.80;;;20.60;99.90;;;;;;5097864;28;20208;-82
2021/06/16 01:28:51;;;;;;;2.20;0.73;;;20.60;99.90;;;;;;5097577;28;20699;-82
2021/06/16 01:31:19;;;;;;;0.67;0.67;;;20.60;99.90;;;;;;5103176;28;20546;-82
2021/06/16 01:33:48;;;;;;;0.70;0.70;;;20.50;99.90;;;;;;5108193;28;20176;-82
2021/06/16 01:36:14;;;;;;;1.50;1.00;;;20.50;99.90;;;;;;5099703;28;20719;-80
2021/06/16 01:38:42;;;;;;;0.70;0.70;;;20.60;99.90;;;;;;5101194;28;20306;-81
2021/06/16 01:41:10;;;;;;;0.60;0.60;;;20.50;99.90;;;;;;5114345;28;20633;-81
2021/06/16 01:43:37;;;;;;;1.13;0.90;;;20.50;99.90;;;;;;5098604;28;20188;-81
2021/06/16 01:46:05;;;;;;;0.73;0.73;;;20.60;99.90;;;;;;5107702;28;20207;-80
2021/06/16 01:48:32;;;;;;;0.57;0.57;;;20.60;99.90;;;;;;5123470;27;20205;-81
2021/06/16 01:50:59;;;;;;;1.10;1.00;;;20.50;99.90;;;;;;5101933;28;20258;-82
2021/06/16 01:53:25;;;;;;;0.60;0.60;;;20.60;99.90;;;;;;5110065;28;20180;-82
2021/06/16 01:55:51;;;;;;;0.70;0.70;;;20.60;99.90;;;;;;5095423;28;20253;-82
2021/06/16 01:58:18;;;;;;;1.40;1.13;;;20.70;99.90;;;;;;5104505;28;20668;-81
2021/06/16 02:00:45;;;;;;;1.50;1.20;;;20.70;99.90;;;;;;5099835;28;20192;-82
2021/06/16 02:03:10;;;;;;;0.70;0.40;;;20.80;99.90;;;;;;5099187;28;20637;-80
2021/06/16 02:05:37;;;;;;;0.67;0.67;;;20.90;99.90;;;;;;5100955;28;20202;-82
2021/06/16 02:08:10;;;;;;;0.60;0.60;;;21.00;99.90;;;;;;5101521;28;20208;-82
2021/06/16 02:10:46;;;;;;;1.20;0.70;;;20.80;99.90;;;;;;5094070;28;20180;-81
2021/06/16 02:13:14;;;;;;;0.87;0.80;;;20.70;99.90;;;;;;5094011;27;20216;-82
2021/06/16 02:15:54;;;;;;;0.87;0.83;;;20.50;99.90;;;;;;5103944;28;20184;-82
2021/06/16 02:18:25;;;;;;;0.63;0.63;;;20.50;99.90;;;;;;5096898;28;20321;-82
2021/06/16 02:20:51;;;;;;;0.60;0.60;;;20.40;99.90;;;;;;5097098;28;20196;-82
2021/06/16 02:23:16;;;;;;;0.63;0.63;;;20.40;99.90;;;;;;5094149;28;20196;-82
2021/06/16 02:25:42;;;;;;;0.93;0.73;;;20.30;99.90;;;;;;5112671;28;20709;-81
2021/06/16 02:28:08;;;;;;;1.27;0.90;;;20.30;99.90;;;;;;5108267;28;20579;-82
2021/06/16 02:30:33;;;;;;;0.80;0.80;;;20.20;99.90;;;;;;5098396;28;20184;-81
2021/06/16 02:32:59;;;;;;;1.13;0.80;;;20.10;99.90;;;;;;5097686;28;21758;-82
2021/06/16 02:35:25;;;;;;;1.00;0.83;;;20.10;99.90;;;;;;5094058;28;20184;-82
2021/06/16 02:38:11;;;;;;;1.13;0.60;;;20.10;99.90;;;;;;5096694;28;20612;-82
2021/06/16 02:40:39;;;;;;;0.50;0.50;;;20.10;99.90;;;;;;5095114;28;20663;-82
2021/06/16 02:43:06;;;;;;;1.10;0.53;;;20.20;99.90;;;;;;5101497;28;20216;-82
2021/06/16 02:45:32;;;;;;;0.57;0.50;;;20.20;99.90;;;;;;5107494;28;20308;-81
2021/06/16 02:48:00;;;;;;;0.77;0.60;;;20.20;99.90;;;;;;5102005;28;20184;-81
2021/06/16 02:50:27;;;;;;;1.20;1.07;;;20.20;99.90;;;;;;5113293;28;20203;-82
2021/06/16 02:52:56;;;;;;;1.53;0.90;;;20.10;99.90;;;;;;5101775;28;20186;-82
2021/06/16 02:55:25;;;;;;;1.20;0.90;;;19.90;99.90;;;;;;5112990;28;20678;-81
2021/06/16 02:57:53;;;;;;;0.83;0.83;;;19.80;99.90;;;;;;5103553;28;20187;-82
2021/06/16 03:00:21;;;;;;;1.07;1.03;;;19.90;99.90;;;;;;5102831;28;20212;-82
2021/06/16 03:02:49;;;;;;;0.70;0.70;;;19.70;99.90;;;;;;5100315;28;20192;-82
2021/06/16 03:05:19;;;;;;;0.63;0.60;;;19.70;99.90;;;;;;5096277;28;20595;-82
2021/06/16 03:07:45;;;;;;;0.80;0.80;;;19.60;99.90;;;;;;5101625;28;20180;-84
2021/06/16 03:10:11;;;;;;;1.03;1.00;;;19.50;99.90;;;;;;5099734;28;20607;-84
2021/06/16 03:12:39;;;;;;;1.20;0.80;;;19.50;99.90;;;;;;5102576;28;20177;-84
2021/06/16 03:15:06;;;;;;;0.60;0.60;;;19.40;99.90;;;;;;5092398;28;20191;-81
2021/06/16 03:17:33;;;;;;;0.63;0.63;;;19.30;99.90;;;;;;5093847;28;20274;-82
2021/06/16 03:20:00;;;;;;;1.03;1.00;;;19.30;99.90;;;;;;5101474;28;20763;-82
2021/06/16 03:22:27;;;;;;;1.07;0.77;;;19.30;99.90;;;;;;5094044;28;20677;-82
2021/06/16 03:24:54;;;;;;;0.80;0.70;;;19.30;99.90;;;;;;5094023;28;20735;-82
2021/06/16 03:27:22;;;;;;;0.90;0.90;;;19.20;99.90;;;;;;5091309;28;20285;-82
2021/06/16 03:29:52;;;;;;;0.60;0.60;;;19.30;99.90;;;;;;5106280;28;20203;-82
2021/06/16 03:32:19;;;;;;;0.77;0.77;;;19.40;99.90;;;;;;5110949;28;20183;-82
2021/06/16 03:34:45;;;;;;;1.47;1.37;;;19.50;99.90;;;;;;5102540;28;20192;-82
2021/06/16 03:37:11;;;;;;;1.27;0.97;;;19.50;99.90;;;;;;5096534;28;20192;-82
2021/06/16 03:39:37;;;;;;;1.27;1.23;;;19.60;99.90;;;;;;5094514;28;20566;-82
2021/06/16 03:42:04;;;;;;;0.47;0.43;;;19.70;99.90;;;;;;5108708;28;20194;-80
2021/06/16 03:44:31;;;;;;;1.00;1.00;;;20.00;99.90;;;;;;5101384;28;20214;-82
2021/06/16 03:46:58;;;;;;;1.57;1.07;;;20.00;99.90;;;;;;5093074;28;21745;-82
2021/06/16 03:49:26;;;;;;;1.57;1.07;;;19.90;99.90;;;;;;5106274;28;20214;-83
2021/06/16 03:51:51;;;;;;;0.60;0.60;;;19.80;99.90;;;;;;5100110;28;20582;-82
2021/06/16 03:54:20;;;;;;;0.60;0.57;;;19.90;99.90;;;;;;5103167;28;20184;-83
2021/06/16 03:56:46;;;;;;;1.17;1.07;;;19.90;99.90;;;;;;5105575;28;20184;-83
2021/06/16 03:59:15;;;;;;;1.00;1.00;;;19.90;99.90;;;;;;5098993;28;20271;-83
2021/06/16 04:01:41;;;;;;;1.23;1.20;;;20.10;99.90;;;;;;5113817;28;20190;-83
2021/06/16 04:04:08;;;;;;;1.27;1.23;;;20.00;99.90;;;;;;5089307;28;20329;-83
2021/06/16 04:06:42;;;;;;;11.20;1.73;;;20.00;99.90;;;;;;5108878;28;20222;-82
2021/06/16 04:09:10;;;;;;;1.10;1.00;;;20.10;99.90;;;;;;5105124;28;20207;-83
2021/06/16 04:11:37;;;;;;;1.00;1.00;;;20.20;99.90;;;;;;5092149;28;20658;-83
2021/06/16 04:14:03;;;;;;;0.60;0.60;;;20.30;99.90;;;;;;5089889;28;20298;-84
2021/06/16 04:16:29;;;;;;;0.80;0.60;;;20.70;99.90;;;;;;5113949;28;20249;-83
2021/06/16 04:18:55;;;;;;;1.30;0.67;;;21.00;99.90;;;;;;5090128;28;20212;-83
2021/06/16 04:21:22;;;;;;;0.97;0.90;;;21.10;99.90;;;;;;5089321;28;20691;-83
2021/06/16 04:23:50;;;;;;;0.80;0.80;;;21.00;99.90;;;;;;5090155;28;20207;-84
2021/06/16 04:26:16;;;;;;;1.00;0.70;;;21.00;99.90;;;;;;5102611;28;20208;-83
2021/06/16 04:28:42;;;;;;;3.20;0.70;;;20.80;99.90;;;;;;5093079;28;20200;-82
2021/06/16 04:31:08;;;;;;;1.30;0.83;;;20.80;99.90;;;;;;5097687;28;20194;-82
2021/06/16 04:33:33;;;;;;;1.47;0.70;;;20.90;99.90;;;;;;5108734;28;20721;-83
2021/06/16 04:36:02;;;;;;;0.50;0.50;;;21.10;99.90;;;;;;5099591;28;20191;-83
2021/06/16 04:38:27;;;;;;;1.10;1.07;;;21.20;99.90;;;;;;5091552;28;20295;-83
2021/06/16 04:40:53;;;;;;;0.40;0.40;;;21.40;99.90;;;;;;5094163;28;20268;-84
2021/06/16 04:43:18;;;;;;;0.90;0.70;;;21.70;99.90;;;;;;5092075;28;20180;-83
2021/06/16 04:45:44;;;;;;;0.90;0.90;;;21.70;99.90;;;;;;5100072;28;20200;-83
2021/06/16 04:48:10;;;;;;;1.13;0.67;;;21.90;99.90;;;;;;5108738;28;20246;-85
2021/06/16 04:50:35;;;;;;;0.60;0.60;;;21.90;99.90;;;;;;5099940;28;20271;-85
2021/06/16 04:53:01;;;;;;;2.27;1.30;;;21.70;99.90;;;;;;5099619;28;20172;-84
2021/06/16 04:55:26;;;;;;;0.87;0.87;;;21.60;99.90;;;;;;5100568;28;20594;-85
2021/06/16 04:57:52;;;;;;;1.10;1.00;;;21.60;99.90;;;;;;5101083;28;20203;-82
2021/06/16 05:00:18;;;;;;;0.97;0.97;;;21.60;99.90;;;;;;5097100;28;20556;-82
2021/06/16 05:02:44;;;;;;;0.83;0.77;;;21.60;99.90;;;;;;5106227;28;20563;-82
2021/06/16 05:05:10;;;;;;;1.60;1.00;;;21.50;99.90;;;;;;5094512;28;20204;-82
2021/06/16 05:07:37;;;;;;;1.67;1.57;;;21.50;99.90;;;;;;5108976;28;20180;-82
2021/06/16 05:10:04;;;;;;;1.57;1.47;;;21.50;99.90;;;;;;5095308;28;20301;-82
2021/06/16 05:12:29;;;;;;;0.70;0.70;;;21.60;99.90;;;;;;5106153;27;20609;-82
2021/06/16 05:14:55;;;;;;;1.10;1.00;;;21.80;99.90;;;;;;5095886;28;20188;-84
2021/06/16 05:17:21;;;;;;;0.70;0.70;;;22.00;99.90;;;;;;5100464;28;20179;-83
2021/06/16 05:19:49;;;;;;;3.10;0.80;;;22.10;99.90;;;;;;5112017;28;20207;-83
2021/06/16 05:22:15;;;;;;;4.43;1.10;;;22.20;99.90;;;;;;5098110;28;20180;-84
2021/06/16 05:24:41;;;;;;;1.40;0.83;;;22.30;99.90;;;;;;5105553;28;20208;-83
2021/06/16 05:27:07;;;;;;;1.17;1.10;;;22.30;99.90;;;;;;5104655;28;20180;-83
2021/06/16 05:29:33;;;;;;;0.87;0.87;;;22.40;99.90;;;;;;5101103;28;20330;-83
2021/06/16 05:31:59;;;;;;;1.17;1.17;;;22.40;99.90;;;;;;5101868;28;20601;-85
2021/06/16 05:34:25;;;;;;;1.20;0.87;;;22.70;99.90;;;;;;5104392;27;20200;-85
2021/06/16 05:36:51;;;;;;;1.20;1.20;;;22.80;99.90;;;;;;5110085;28;20643;-85
2021/06/16 05:39:16;;;;;;;1.60;1.50;;;22.80;99.90;;;;;;5105452;28;20290;-84
2021/06/16 05:41:42;;;;;;;0.80;0.80;;;23.00;99.90;;;;;;5110856;28;20181;-83
2021/06/16 05:44:08;;;;;;;0.90;0.90;;;23.00;99.90;;;;;;5102798;28;20196;-84
2021/06/16 05:46:34;;;;;;;1.67;0.90;;;23.00;99.90;;;;;;5105351;28;20188;-85
2021/06/16 05:48:59;;;;;;;1.67;1.37;;;23.40;99.90;;;;;;5100514;28;20200;-85
2021/06/16 05:51:25;;;;;;;1.07;1.07;;;23.40;99.90;;;;;;5099742;28;20313;-85
2021/06/16 05:53:51;;;;;;;1.50;1.40;;;23.40;99.90;;;;;;5101312;28;20195;-84
2021/06/16 05:56:16;;;;;;;1.63;1.13;;;23.20;99.90;;;;;;5100682;28;20224;-83
2021/06/16 05:58:42;;;;;;;1.60;0.80;;;23.20;99.90;;;;;;5102114;28;20219;-84
2021/06/16 06:01:07;;;;;;;0.80;0.80;;;23.40;99.90;;;;;;5102473;27;20214;-84
2021/06/16 06:03:34;;;;;;;1.90;1.80;;;23.60;99.90;;;;;;5124769;27;20374;-84
2021/06/16 06:05:59;;;;;;;0.60;0.60;;;23.40;99.90;;;;;;5106796;28;20215;-85
2021/06/16 06:08:25;;;;;;;2.10;1.40;;;23.70;99.90;;;;;;5101501;28;20203;-84
2021/06/16 06:10:51;;;;;;;1.50;1.40;;;23.50;99.90;;;;;;5093350;28;20201;-85
2021/06/16 06:13:16;;;;;;;1.87;1.30;;;23.80;99.90;;;;;;5101937;27;20252;-84
2021/06/16 06:15:42;;;;;;;0.67;0.67;;;24.30;99.90;;;;;;5109680;28;20202;-84
2021/06/16 06:18:07;;;;;;;1.73;1.63;;;24.50;99.90;;;;;;5100193;28;20215;-84
2021/06/16 06:20:33;;;;;;;1.57;1.47;;;24.10;99.90;;;;;;5099072;28;20215;-84
2021/06/16 06:22:59;;;;;;;1.20;1.10;;;24.40;99.90;;;;;;5104227;28;20191;-85
2021/06/16 06:25:25;;;;;;;1.63;1.20;;;24.50;99.90;;;;;;5095351;28;20675;-84
2021/06/16 06:27:50;;;;;;;0.90;0.90;;;24.70;99.90;;;;;;5110299;28;20184;-85
2021/06/16 06:30:16;;;;;;;1.83;1.60;;;24.60;99.90;;;;;;5102578;28;20181;-84
2021/06/16 06:32:42;;;;;;;1.10;1.00;;;24.30;99.90;;;;;;5092731;28;20544;-85
2021/06/16 06:35:08;;;;;;;1.50;1.13;;;24.10;99.90;;;;;;5091857;28;20529;-84
2021/06/16 06:37:34;;;;;;;1.10;0.73;;;24.30;99.90;;;;;;5106187;27;20179;-84
2021/06/16 06:40:01;;;;;;;1.70;1.40;;;24.90;99.90;;;;;;5091166;28;20287;-83
2021/06/16 06:42:27;;;;;;;0.90;0.90;;;24.60;99.90;;;;;;5098188;28;20192;-85
2021/06/16 06:44:52;;;;;;;1.87;1.67;;;24.90;99.90;;;;;;5099602;28;20212;-85
2021/06/16 06:47:18;;;;;;;1.23;1.13;;;24.50;99.90;;;;;;5103835;28;20180;-85
2021/06/16 06:49:44;;;;;;;1.10;1.00;;;24.80;99.90;;;;;;5105083;28;20208;-84
2021/06/16 06:52:09;;;;;;;1.50;1.27;;;25.00;99.90;;;;;;5107462;28;20176;-84
2021/06/16 06:54:35;;;;;;;0.70;0.70;;;25.30;99.90;;;;;;5107095;28;20240;-85
2021/06/16 06:57:02;;;;;;;1.57;1.40;;;25.30;99.90;;;;;;5107005;28;20175;-85
2021/06/16 06:59:28;;;;;;;1.33;1.27;;;25.10;99.90;;;;;;5092827;28;20275;-85
2021/06/16 07:01:54;;;;;;;1.53;0.80;;;25.00;99.90;;;;;;5107115;28;20296;-85
2021/06/16 07:04:21;;;;;;;1.50;1.13;;;25.50;99.90;;;;;;5096186;28;20184;-84
2021/06/16 07:06:46;;;;;;;1.90;1.57;;;25.20;99.90;;;;;;5102006;28;20752;-86
2021/06/16 07:09:12;;;;;;;1.57;1.47;;;25.20;99.90;;;;;;5099199;28;20196;-82
2021/06/16 07:11:38;;;;;;;2.30;1.33;;;25.20;99.90;;;;;;5096850;27;20183;-83
2021/06/16 07:14:03;;;;;;;1.57;1.37;;;25.70;99.90;;;;;;5096059;28;20193;-85
2021/06/16 07:16:29;;;;;;;1.63;1.20;;;25.40;99.90;;;;;;5106345;28;20545;-84
2021/06/16 07:18:54;;;;;;;1.10;1.03;;;25.10;99.90;;;;;;5108337;28;20271;-85
2021/06/16 07:21:20;;;;;;;2.27;2.00;;;25.60;99.90;;;;;;5096939;28;20560;-84
2021/06/16 07:23:46;;;;;;;1.70;1.60;;;25.60;99.90;;;;;;5090684;28;20269;-85
2021/06/16 07:26:11;;;;;;;8.13;1.50;;;25.40;99.90;;;;;;5090574;28;20216;-85
2021/06/16 07:28:37;;;;;;;1.30;1.20;;;25.70;99.90;;;;;;5090673;28;20230;-86
2021/06/16 07:31:03;;;;;;;1.23;1.13;;;25.70;99.90;;;;;;5101851;28;20187;-84
2021/06/16 07:33:28;;;;;;;1.30;1.20;;;26.10;99.90;;;;;;5109565;28;20237;-85
2021/06/16 07:35:54;;;;;;;1.10;1.03;;;25.60;99.90;;;;;;5110866;28;20210;-85
2021/06/16 07:38:20;;;;;;;2.37;1.43;;;25.50;99.90;;;;;;5111739;28;20227;-85
2021/06/16 07:40:46;;;;;;;1.50;1.40;;;25.60;99.90;;;;;;5111057;28;20677;-85
2021/06/16 07:43:11;;;;;;;2.03;1.37;;;25.30;99.90;;;;;;5096713;28;20215;-85
2021/06/16 07:45:37;;;;;;;2.83;1.43;;;25.60;99.90;;;;;;5106947;28;20206;-85
2021/06/16 07:48:03;;;;;;;1.23;1.13;;;26.00;99.90;;;;;;5109795;28;20192;-84
2021/06/16 07:50:29;;;;;;;6.53;1.07;;;26.50;99.90;;;;;;5095609;28;20286;-86
2021/06/16 07:52:55;;;;;;;1.40;1.30;;;26.20;99.90;;;;;;5097215;28;20184;-86
2021/06/16 07:55:21;;;;;;;1.40;1.30;;;26.40;99.90;;;;;;5098071;28;20179;-84
2021/06/16 07:57:46;;;;;;;1.27;0.90;;;26.70;99.90;;;;;;5091159;28;20548;-85
2021/06/16 08:00:13;;;;;;;1.00;1.00;;;27.10;99.90;;;;;;5091598;28;20186;-85
2021/06/16 08:02:39;;;;;;;1.50;1.23;;;27.30;99.90;;;;;;5093935;28;20199;-85
2021/06/16 08:05:06;;;;;;;2.97;1.40;;;27.10;99.90;;;;;;5110330;28;20214;-85
2021/06/16 08:07:32;;;;;;;1.63;0.93;;;26.80;99.90;;;;;;5100382;28;20230;-86
2021/06/16 08:09:58;;;;;;;2.67;1.57;;;27.10;99.90;;;;;;5110273;28;20204;-85
2021/06/16 08:12:23;;;;;;;2.63;1.50;;;27.10;99.90;;;;;;5116958;28;20175;-84
2021/06/16 08:14:49;;;;;;;1.83;1.33;;;26.40;99.90;;;;;;5121400;28;20210;-86
2021/06/16 08:17:15;;;;;;;1.03;1.03;;;26.50;99.90;;;;;;5112389;28;20267;-85
2021/06/16 08:19:41;;;;;;;1.60;1.50;;;26.70;99.90;;;;;;5110978;28;20349;-85
2021/06/16 08:22:10;;;;;;;1.83;1.73;;;26.90;99.90;;;;;;5104623;28;20554;-85
2021/06/16 08:24:36;;;;;;;1.00;1.00;;;27.10;99.90;;;;;;5109633;28;20305;-83
2021/06/16 08:27:01;;;;;;;3.33;1.73;;;26.80;99.90;;;;;;5094993;28;20273;-84
2021/06/16 08:29:27;;;;;;;2.53;2.37;;;26.40;99.90;;;;;;5104633;28;20200;-85
2021/06/16 08:31:53;;;;;;;1.63;1.23;;;26.50;99.90;;;;;;5102795;28;20185;-85
2021/06/16 08:34:18;;;;;;;1.60;1.50;;;26.50;99.90;;;;;;5104584;28;20239;-85
2021/06/16 08:36:45;;;;;;;1.17;1.13;;;26.80;99.90;;;;;;5100357;28;20245;-84
2021/06/16 08:39:11;;;;;;;1.87;1.77;;;27.00;99.90;;;;;;5094419;28;20204;-84
2021/06/16 08:41:38;;;;;;;1.87;1.17;;;26.40;99.90;;;;;;5094120;28;20251;-83
2021/06/16 08:44:06;;;;;;;1.77;1.27;;;27.00;99.90;;;;;;5107608;28;20188;-84
2021/06/16 08:46:32;;;;;;;0.87;0.87;;;27.00;99.90;;;;;;5111061;28;20840;-85
2021/06/16 08:48:58;;;;;;;1.07;0.90;;;27.20;99.90;;;;;;5099184;28;20196;-85
2021/06/16 08:51:23;;;;;;;1.70;1.60;;;27.40;99.90;;;;;;5109513;28;20237;-85
2021/06/16 08:53:49;;;;;;;1.93;1.73;;;27.40;99.90;;;;;;5112006;28;20183;-85
2021/06/16 08:56:15;;;;;;;1.20;1.10;;;27.90;99.90;;;;;;5108382;28;20180;-85
2021/06/16 08:58:42;;;;;;;1.58;1.48;;;27.90;99.90;;;;;;5103713;28;20207;-85
2021/06/16 09:01:09;;;;;;;0.87;0.87;;;27.80;99.90;;;;;;5111059;28;20180;-85
2021/06/16 09:03:36;;;;;;;1.40;1.30;;;28.00;99.90;;;;;;5102155;28;20180;-85
2021/06/16 09:06:07;;;;;;;0.98;0.98;;;28.00;99.90;;;;;;5106034;28;20306;-85
2021/06/16 09:08:48;;;;;;;1.57;1.47;;;27.90;99.90;;;;;;5100570;28;20200;-85
2021/06/16 09:11:14;;;;;;;2.10;1.87;;;27.80;99.90;;;;;;5111558;27;20192;-85
2021/06/16 09:13:40;;;;;;;3.17;1.73;;;27.60;99.90;;;;;;5101325;27;20179;-85
2021/06/16 09:16:24;;;;;;;1.50;1.40;;;27.90;99.90;;;;;;5114542;28;20182;-85
2021/06/16 09:18:50;;;;;;;2.00;1.80;;;27.60;99.90;;;;;;5096039;28;20206;-85
2021/06/16 09:21:30;;;;;;;0.80;0.80;;;27.70;99.90;;;;;;5093539;28;20188;-84
2021/06/16 09:23:55;;;;;;;1.27;1.25;;;28.20;99.90;;;;;;5091041;28;20241;-85
2021/06/16 09:26:21;;;;;;;1.50;1.40;;;28.80;99.90;;;;;;5092359;28;20691;-85
2021/06/16 09:28:51;;;;;;;1.75;1.10;;;28.90;99.90;;;;;;5092538;28;20204;-85
2021/06/16 09:31:20;;;;;;;0.98;0.95;;;28.40;99.90;;;;;;5097944;28;20833;-85
2021/06/16 09:33:46;;;;;;;1.80;1.45;;;28.60;99.90;;;;;;5102526;28;20566;-83
2021/06/16 09:36:15;;;;;;;2.20;1.75;;;27.80;99.90;;;;;;5092989;28;20191;-85
2021/06/16 09:38:44;;;;;;;2.15;1.35;;;27.70;99.90;;;;;;5102644;28;20223;-85
2021/06/16 09:41:11;;;;;;;1.35;1.30;;;28.20;99.90;;;;;;5121122;27;20216;-84
2021/06/16 09:43:38;;;;;;;1.55;1.23;;;28.30;99.90;;;;;;5104842;28;20176;-85
2021/06/16 09:46:07;;;;;;;1.17;1.05;;;28.40;99.90;;;;;;5097494;28;20587;-84
2021/06/16 09:48:43;;;;;;;1.40;1.30;;;28.90;99.90;;;;;;5094389;28;20201;-85
2021/06/16 09:51:21;;;;;;;2.38;1.58;;;29.10;99.90;;;;;;5091836;28;20183;-85
2021/06/16 09:54:21;;;;;;;1.30;1.20;;;29.00;99.90;;;;;;5099541;28;20233;-82
2021/06/16 09:56:59;;;;;;;0.98;0.98;;;29.30;99.90;;;;;;5097704;28;20641;-85
2021/06/16 09:59:38;;;;;;;1.02;1.02;;;29.80;99.90;;;;;;5091242;28;20287;-85
2021/06/16 10:02:04;;;;;;;1.90;1.13;;;30.00;99.90;;;;;;5096427;28;20176;-84
2021/06/16 10:04:31;;;;;;;0.70;0.70;;;30.40;99.90;;;;;;5092721;28;21546;-85
2021/06/16 10:07:09;;;;;;;0.98;0.98;;;30.30;99.90;;;;;;5100579;28;20674;-85
2021/06/16 10:09:36;;;;;;;1.02;1.00;;;30.00;99.90;;;;;;5101252;28;20241;-85
2021/06/16 10:12:01;;;;;;;1.58;1.27;;;29.70;99.90;;;;;;5109879;27;20257;-85
2021/06/16 10:14:27;;;;;;;1.50;1.40;;;30.00;99.90;;;;;;5104186;28;20641;-85
2021/06/16 10:16:54;;;;;;;2.28;0.88;;;30.40;99.90;;;;;;5094726;28;20224;-84
2021/06/16 10:19:20;;;;;;;1.00;0.90;;;30.60;99.90;;;;;;5108629;28;20238;-85
2021/06/16 10:21:46;;;;;;;1.25;1.15;;;30.80;99.90;;;;;;5092750;28;20195;-84
2021/06/16 10:24:11;;;;;;;1.42;1.15;;;30.30;99.90;;;;;;5092076;28;20192;-85
2021/06/16 10:26:38;;;;;;;1.65;1.00;;;30.40;99.90;;;;;;5123123;27;20269;-85
2021/06/16 10:29:09;;;;;;;1.10;1.00;;;30.40;99.90;;;;;;5114097;27;20245;-85
2021/06/16 10:31:38;;;;;;;0.80;0.80;;;30.30;99.90;;;;;;5096806;28;20179;-85
2021/06/16 10:34:03;;;;;;;1.10;1.10;;;30.00;99.90;;;;;;5109344;27;20187;-84
2021/06/16 10:36:31;;;;;;;1.10;0.98;;;30.10;99.90;;;;;;5107285;28;20179;-85
2021/06/16 10:38:57;;;;;;;0.90;0.90;;;30.20;99.90;;;;;;5089771;28;20268;-85
2021/06/16 10:41:38;;;;;;;1.50;1.40;;;29.80;99.90;;;;;;5091476;28;20661;-85
2021/06/16 10:44:14;;;;;;;2.95;1.67;;;29.90;99.90;;;;;;5093195;28;20279;-85
2021/06/16 10:46:59;;;;;;;1.23;1.23;;;29.50;99.90;;;;;;5090592;28;20212;-84
2021/06/16 10:49:46;;;;;;;1.25;1.17;;;30.10;99.90;;;;;;5094317;28;20203;-86
2021/06/16 10:52:14;;;;;;;1.10;1.10;;;30.10;99.90;;;;;;5093187;28;20176;-86
2021/06/16 10:54:56;;;;;;;1.38;1.23;;;30.50;99.90;;;;;;5126777;27;20190;-86
2021/06/16 10:57:22;;;;;;;1.02;0.75;;;30.60;99.90;;;;;;5091004;28;20214;-85
2021/06/16 10:59:50;;;;;;;1.75;1.65;;;30.90;99.90;;;;;;5089276;28;20299;-85
2021/06/16 11:02:17;;;;;;;1.73;1.27;;;30.10;99.90;;;;;;5092440;28;20666;-86
2021/06/16 11:04:43;;;;;;;1.73;1.63;;;30.70;99.90;;;;;;5083680;28;20211;-84
2021/06/16 11:07:29;;;;;;;1.23;1.23;;;30.50;99.90;;;;;;5070195;28;20177;-86
2021/06/16 11:10:00;;;;;;;2.10;1.58;;;30.90;99.90;;;;;;5079717;28;20258;-84
2021/06/16 11:12:32;;;;;;;1.55;1.45;;;30.90;99.90;;;;;;5071162;28;20324;-86
2021/06/16 11:15:00;;;;;;;1.38;1.17;;;29.80;99.90;;;;;;5078298;28;20213;-86
2021/06/16 11:17:35;;;;;;;3.15;1.67;;;30.10;99.90;;;;;;5071538;28;20271;-85
2021/06/16 11:20:07;;;;;;;1.48;1.38;;;29.70;99.90;;;;;;5088506;28;20490;-86
2021/06/16 11:22:36;;;;;;;1.45;1.35;;;30.40;99.90;;;;;;5086330;28;20601;-85
2021/06/16 11:25:17;;;;;;;1.17;1.17;;;30.90;99.90;;;;;;5091597;28;20215;-84
2021/06/16 11:28:09;;;;;;;0.82;0.82;;;31.40;99.90;;;;;;5089707;28;20184;-85
2021/06/16 11:30:54;;;;;;;1.45;1.35;;;31.90;99.90;;;;;;5097841;28;20191;-85
2021/06/16 11:33:20;;;;;;;1.17;1.17;;;31.60;99.90;;;;;;5091876;28;20183;-84
2021/06/16 11:35:46;;;;;;;3.40;1.45;;;30.80;99.90;;;;;;5095441;28;20255;-85
2021/06/16 11:38:29;;;;;;;1.77;1.45;;;30.90;99.90;;;;;;5108493;28;20283;-85
2021/06/16 11:41:16;;;;;;;1.90;1.70;;;31.50;99.90;;;;;;5102359;28;20274;-84
2021/06/16 11:44:05;;;;;;;1.33;1.23;;;31.60;99.90;;;;;;5108443;28;20800;-86
2021/06/16 11:46:36;;;;;;;1.85;1.75;;;31.40;99.90;;;;;;5093430;28;20212;-86
2021/06/16 11:49:20;;;;;;;2.15;1.92;;;31.60;99.90;;;;;;5101321;28;20328;-85
2021/06/16 11:51:51;;;;;;;1.98;1.80;;;31.10;99.90;;;;;;5098450;28;20180;-86
2021/06/16 11:54:38;;;;;;;2.15;1.52;;;30.90;99.90;;;;;;5105346;28;20175;-84
2021/06/16 11:57:07;;;;;;;1.63;1.40;;;30.50;99.90;;;;;;5103734;28;20266;-85
2021/06/16 11:59:43;;;;;;;3.42;2.28;;;31.00;99.90;;;;;;5102761;28;21266;-86
2021/06/16 12:02:26;;;;;;;2.10;1.92;;;30.90;99.90;;;;;;5100426;28;20179;-86
2021/06/16 12:05:03;;;;;;;1.92;1.75;;;30.90;99.90;;;;;;5095459;28;20315;-85
2021/06/16 12:07:44;;;;;;;1.77;1.67;;;31.10;99.90;;;;;;5102035;28;20334;-85
2021/06/16 12:10:13;;;;;;;1.92;1.73;;;31.30;99.90;;;;;;5104246;28;20176;-85
2021/06/16 12:12:46;;;;;;;1.98;1.80;;;31.80;99.90;;;;;;5101773;27;20183;-85
2021/06/16 12:15:15;;;;;;;1.80;1.23;;;32.10;99.90;;;;;;5107892;28;20190;-86
2021/06/16 12:17:59;;;;;;;2.22;1.67;;;31.50;99.90;;;;;;5113123;27;20199;-85
2021/06/16 12:20:27;;;;;;;1.73;1.52;;;31.90;99.90;;;;;;5096333;28;20237;-86
2021/06/16 12:22:53;;;;;;;1.20;1.20;;;31.90;99.90;;;;;;5097913;28;20191;-85
2021/06/16 12:25:26;;;;;;;2.65;1.60;;;31.50;99.90;;;;;;5095605;28;20216;-86
2021/06/16 12:27:52;;;;;;;1.67;1.48;;;31.60;99.90;;;;;;5109891;28;20639;-85
2021/06/16 12:30:23;;;;;;;1.95;1.48;;;32.00;99.90;;;;;;5105811;28;20184;-85
2021/06/16 12:33:19;;;;;;;1.52;1.35;;;32.30;99.90;;;;;;5093890;28;20180;-86
2021/06/16 12:36:07;;;;;;;1.23;1.10;;;32.00;99.90;;;;;;5095515;28;20281;-85
2021/06/16 12:38:47;;;;;;;2.17;1.98;;;31.40;99.90;;;;;;5095528;28;20208;-86
2021/06/16 12:41:34;;;;;;;2.15;1.58;;;31.40;99.90;;;;;;5105442;28;20184;-85
2021/06/16 12:44:21;;;;;;;1.83;1.30;;;31.80;99.90;;;;;;5096654;28;20693;-85
2021/06/16 12:47:05;;;;;;;1.75;1.65;;;32.30;99.90;;;;;;5093244;28;20216;-85
2021/06/16 12:49:43;;;;;;;1.52;1.42;;;32.20;99.90;;;;;;5122731;27;20628;-84
2021/06/16 12:52:15;;;;;;;1.55;1.45;;;32.50;99.90;;;;;;5097718;28;20235;-86
2021/06/16 12:54:42;;;;;;;1.90;1.55;;;32.20;99.90;;;;;;5106699;28;20233;-85
2021/06/16 12:57:09;;;;;;;1.60;1.50;;;31.70;99.90;;;;;;5098137;27;20267;-84